DLH1KY EDDF-EDDB
Flight info
| Callsign | DLH1KY |
|---|---|
| Flight time | 0h 47m |
| Altitude | 31000 |
| Route | TOBAK2S TOBAK N858 SWALM T201 TAMEB T278 KLF KLF1R |
| Aircraft | A320/M-SDE3FGHIRWY/LB1 |
Departure
| Time | 2026-05-06 03:10 |
|---|---|
| Airport | Frankfurt Main Airport (EDDF) |
Arrival
| Time | 2026-05-06 03:57 |
|---|---|
| Airport | Berlin Brandenburg Airport (EDDB) |
| Time | Latitude | Longitude | Altitude | Speed | Heading |
|---|---|---|---|---|---|
| 2026-05-06 02:33 | 50.04802 | 8.56916 | 356 ft | 0 kts | 294° |
| 2026-05-06 02:40 | 50.04802 | 8.56917 | 356 ft | 0 kts | 294° |
| 2026-05-06 02:57 | 50.04800 | 8.56924 | 362 ft | 4 kts | 294° |
| 2026-05-06 02:57 | 50.04789 | 8.56963 | 361 ft | 4 kts | 295° |
| 2026-05-06 02:57 | 50.04781 | 8.56993 | 358 ft | 4 kts | 276° |
| 2026-05-06 02:57 | 50.04786 | 8.57026 | 356 ft | 4 kts | 217° |
| 2026-05-06 02:58 | 50.04793 | 8.57034 | 359 ft | 4 kts | 204° |
| 2026-05-06 02:58 | 50.04769 | 8.57016 | 362 ft | 4 kts | 204° |
| 2026-05-06 02:58 | 50.04744 | 8.56999 | 356 ft | 4 kts | 204° |
| 2026-05-06 02:58 | 50.04720 | 8.56981 | 360 ft | 4 kts | 204° |
| 2026-05-06 02:59 | 50.04695 | 8.56963 | 361 ft | 4 kts | 205° |
| 2026-05-06 02:59 | 50.04671 | 8.56946 | 358 ft | 4 kts | 205° |
| 2026-05-06 02:59 | 50.04649 | 8.56930 | 362 ft | 1 kts | 205° |
| 2026-05-06 03:02 | 50.04646 | 8.56928 | 356 ft | 3 kts | 202° |
| 2026-05-06 03:02 | 50.04605 | 8.56911 | 356 ft | 9 kts | 194° |
| 2026-05-06 03:03 | 50.04556 | 8.56892 | 363 ft | 5 kts | 194° |
| 2026-05-06 03:03 | 50.04519 | 8.56879 | 359 ft | 6 kts | 193° |
| 2026-05-06 03:03 | 50.04517 | 8.56878 | 359 ft | 0 kts | 193° |
| 2026-05-06 03:04 | 50.04501 | 8.56872 | 359 ft | 5 kts | 192° |
| 2026-05-06 03:04 | 50.04482 | 8.56925 | 359 ft | 10 kts | 93° |
| 2026-05-06 03:04 | 50.04506 | 8.57059 | 363 ft | 14 kts | 70° |
| 2026-05-06 03:05 | 50.04540 | 8.57211 | 357 ft | 15 kts | 73° |
| 2026-05-06 03:05 | 50.04571 | 8.57328 | 357 ft | 13 kts | 68° |
| 2026-05-06 03:05 | 50.04599 | 8.57458 | 358 ft | 10 kts | 86° |
| 2026-05-06 03:05 | 50.04539 | 8.57529 | 363 ft | 12 kts | 157° |
| 2026-05-06 03:06 | 50.04490 | 8.57569 | 362 ft | 9 kts | 151° |
| 2026-05-06 03:06 | 50.04422 | 8.57625 | 366 ft | 14 kts | 151° |
| 2026-05-06 03:06 | 50.04327 | 8.57684 | 368 ft | 10 kts | 167° |
| 2026-05-06 03:06 | 50.04256 | 8.57727 | 362 ft | 12 kts | 155° |
| 2026-05-06 03:07 | 50.04175 | 8.57780 | 367 ft | 12 kts | 158° |
| 2026-05-06 03:07 | 50.04094 | 8.57825 | 369 ft | 12 kts | 160° |
| 2026-05-06 03:07 | 50.04010 | 8.57874 | 370 ft | 14 kts | 160° |
| 2026-05-06 03:07 | 50.03942 | 8.57913 | 367 ft | 0 kts | 160° |
| 2026-05-06 03:08 | 50.03934 | 8.57918 | 368 ft | 5 kts | 160° |
| 2026-05-06 03:08 | 50.03877 | 8.57950 | 370 ft | 13 kts | 159° |
| 2026-05-06 03:09 | 50.03836 | 8.57946 | 367 ft | 3 kts | 253° |
| 2026-05-06 03:09 | 50.03833 | 8.57932 | 365 ft | 0 kts | 249° |
| 2026-05-06 03:09 | 50.03823 | 8.57890 | 363 ft | 26 kts | 250° |
| 2026-05-06 03:09 | 50.03663 | 8.57221 | 362 ft | 101 kts | 249° |
| 2026-05-06 03:10 | 50.03354 | 8.55928 | 359 ft | 154 kts | 250° |
| 2026-05-06 03:10 | 50.02969 | 8.54325 | 944 ft | 157 kts | 248° |
| 2026-05-06 03:10 | 50.02595 | 8.52756 | 1693 ft | 159 kts | 248° |
| 2026-05-06 03:10 | 50.02326 | 8.50994 | 2094 ft | 180 kts | 268° |
| 2026-05-06 03:11 | 50.02522 | 8.48923 | 2460 ft | 205 kts | 277° |
| 2026-05-06 03:11 | 50.02784 | 8.46711 | 3262 ft | 210 kts | 278° |
| 2026-05-06 03:11 | 50.03050 | 8.44463 | 4144 ft | 213 kts | 278° |
| 2026-05-06 03:11 | 50.03522 | 8.42251 | 5015 ft | 222 kts | 298° |
| 2026-05-06 03:12 | 50.04657 | 8.40434 | 5521 ft | 250 kts | 318° |
| 2026-05-06 03:12 | 50.06094 | 8.38736 | 6166 ft | 265 kts | 319° |
| 2026-05-06 03:12 | 50.07585 | 8.36994 | 6985 ft | 271 kts | 319° |
| 2026-05-06 03:12 | 50.09106 | 8.35221 | 7856 ft | 276 kts | 320° |
| 2026-05-06 03:13 | 50.10834 | 8.33816 | 8704 ft | 287 kts | 338° |
| 2026-05-06 03:13 | 50.12828 | 8.33283 | 9583 ft | 297 kts | 356° |
| 2026-05-06 03:13 | 50.14904 | 8.33745 | 10337 ft | 308 kts | 13° |
| 2026-05-06 03:13 | 50.17010 | 8.34716 | 10642 ft | 332 kts | 14° |
| 2026-05-06 03:14 | 50.19281 | 8.35790 | 11070 ft | 348 kts | 15° |
| 2026-05-06 03:14 | 50.21619 | 8.36909 | 11807 ft | 354 kts | 15° |
| 2026-05-06 03:14 | 50.23984 | 8.38044 | 12586 ft | 358 kts | 15° |
| 2026-05-06 03:14 | 50.26374 | 8.39191 | 13345 ft | 362 kts | 15° |
| 2026-05-06 03:15 | 50.28718 | 8.40703 | 14042 ft | 368 kts | 27° |
| 2026-05-06 03:15 | 50.30861 | 8.42933 | 14691 ft | 373 kts | 39° |
| 2026-05-06 03:15 | 50.32811 | 8.45638 | 15352 ft | 376 kts | 41° |
| 2026-05-06 03:15 | 50.34770 | 8.48369 | 16043 ft | 379 kts | 41° |
| 2026-05-06 03:16 | 50.36751 | 8.51116 | 16739 ft | 382 kts | 41° |
| 2026-05-06 03:16 | 50.38749 | 8.53883 | 17406 ft | 385 kts | 41° |
| 2026-05-06 03:16 | 50.40757 | 8.56675 | 18065 ft | 388 kts | 42° |
| 2026-05-06 03:16 | 50.42784 | 8.59497 | 18628 ft | 391 kts | 42° |
| 2026-05-06 03:17 | 50.44798 | 8.62300 | 19197 ft | 394 kts | 41° |
| 2026-05-06 03:17 | 50.46880 | 8.65122 | 19757 ft | 396 kts | 41° |
| 2026-05-06 03:17 | 50.48997 | 8.67912 | 20320 ft | 399 kts | 40° |
| 2026-05-06 03:17 | 50.51140 | 8.70701 | 20882 ft | 402 kts | 40° |
| 2026-05-06 03:18 | 50.53300 | 8.73508 | 21430 ft | 404 kts | 40° |
| 2026-05-06 03:18 | 50.55456 | 8.76374 | 21972 ft | 406 kts | 44° |
| 2026-05-06 03:18 | 50.57352 | 8.79658 | 22559 ft | 406 kts | 53° |
| 2026-05-06 03:18 | 50.58872 | 8.83403 | 23109 ft | 407 kts | 62° |
| 2026-05-06 03:19 | 50.60227 | 8.87327 | 23593 ft | 409 kts | 62° |
| 2026-05-06 03:19 | 50.61591 | 8.91267 | 24041 ft | 411 kts | 62° |
| 2026-05-06 03:19 | 50.62967 | 8.95231 | 24466 ft | 413 kts | 62° |
| 2026-05-06 03:19 | 50.64349 | 8.99208 | 24892 ft | 415 kts | 62° |
| 2026-05-06 03:20 | 50.67109 | 9.07188 | 25710 ft | 420 kts | 63° |
| 2026-05-06 03:20 | 50.68506 | 9.11236 | 26116 ft | 422 kts | 63° |
| 2026-05-06 03:20 | 50.69916 | 9.15311 | 26515 ft | 424 kts | 63° |
| 2026-05-06 03:21 | 50.71267 | 9.19446 | 26911 ft | 425 kts | 68° |
| 2026-05-06 03:21 | 50.72239 | 9.23852 | 27288 ft | 425 kts | 77° |
| 2026-05-06 03:21 | 50.72928 | 9.28395 | 27673 ft | 427 kts | 78° |
| 2026-05-06 03:21 | 50.73614 | 9.32969 | 28060 ft | 429 kts | 78° |
| 2026-05-06 03:22 | 50.74306 | 9.37563 | 28445 ft | 431 kts | 78° |
| 2026-05-06 03:22 | 50.75004 | 9.42190 | 28765 ft | 435 kts | 78° |
| 2026-05-06 03:22 | 50.75703 | 9.46847 | 29108 ft | 437 kts | 78° |
| 2026-05-06 03:22 | 50.76402 | 9.51528 | 29472 ft | 439 kts | 78° |
| 2026-05-06 03:23 | 50.77105 | 9.56244 | 29816 ft | 441 kts | 78° |
| 2026-05-06 03:23 | 50.77806 | 9.60974 | 30107 ft | 443 kts | 78° |
| 2026-05-06 03:23 | 50.78497 | 9.65662 | 30374 ft | 446 kts | 78° |
| 2026-05-06 03:23 | 50.79200 | 9.70445 | 30635 ft | 448 kts | 78° |
| 2026-05-06 03:24 | 50.79907 | 9.75246 | 30755 ft | 447 kts | 78° |
| 2026-05-06 03:24 | 50.80601 | 9.79941 | 30777 ft | 431 kts | 78° |
| 2026-05-06 03:24 | 50.81938 | 9.89022 | 30777 ft | 421 kts | 79° |
| 2026-05-06 03:25 | 50.83253 | 9.98059 | 30781 ft | 422 kts | 79° |
| 2026-05-06 03:25 | 50.84394 | 10.07150 | 30781 ft | 420 kts | 88° |
| 2026-05-06 03:26 | 50.84162 | 10.16258 | 30779 ft | 417 kts | 98° |
| 2026-05-06 03:26 | 50.83629 | 10.25386 | 30782 ft | 417 kts | 97° |
| 2026-05-06 03:27 | 50.83098 | 10.34524 | 30785 ft | 417 kts | 97° |
| 2026-05-06 03:27 | 50.82563 | 10.43650 | 30769 ft | 417 kts | 98° |
| 2026-05-06 03:28 | 50.82019 | 10.52787 | 30765 ft | 417 kts | 98° |
| 2026-05-06 03:28 | 50.81452 | 10.61924 | 30768 ft | 418 kts | 98° |
| 2026-05-06 03:29 | 50.81334 | 10.71050 | 30764 ft | 422 kts | 84° |
| 2026-05-06 03:29 | 50.83114 | 10.79902 | 30767 ft | 427 kts | 64° |
| 2026-05-06 03:30 | 50.85936 | 10.88173 | 30764 ft | 426 kts | 63° |
| 2026-05-06 03:30 | 50.88722 | 10.96450 | 30779 ft | 426 kts | 64° |
| 2026-05-06 03:31 | 50.91472 | 11.04679 | 30781 ft | 425 kts | 64° |
| 2026-05-06 03:31 | 50.94235 | 11.12963 | 30780 ft | 425 kts | 64° |
| 2026-05-06 03:32 | 50.96990 | 11.21239 | 30778 ft | 424 kts | 64° |
| 2026-05-06 03:32 | 50.99741 | 11.29518 | 30769 ft | 424 kts | 64° |
| 2026-05-06 03:33 | 51.02492 | 11.37797 | 30768 ft | 424 kts | 64° |
| 2026-05-06 03:33 | 51.05228 | 11.46063 | 30772 ft | 422 kts | 64° |
| 2026-05-06 03:34 | 51.07925 | 11.54274 | 30764 ft | 421 kts | 64° |
| 2026-05-06 03:34 | 51.10625 | 11.62538 | 30765 ft | 421 kts | 64° |
| 2026-05-06 03:35 | 51.13323 | 11.70812 | 30766 ft | 421 kts | 64° |
| 2026-05-06 03:35 | 51.16019 | 11.79086 | 30760 ft | 421 kts | 64° |
| 2026-05-06 03:36 | 51.18706 | 11.87376 | 30759 ft | 421 kts | 64° |
| 2026-05-06 03:36 | 51.21621 | 11.95378 | 30774 ft | 422 kts | 54° |
| 2026-05-06 03:37 | 51.25602 | 12.02264 | 30760 ft | 422 kts | 48° |
| 2026-05-06 03:37 | 51.29655 | 12.09070 | 30740 ft | 424 kts | 48° |
| 2026-05-06 03:38 | 51.34131 | 12.15204 | 29609 ft | 430 kts | 26° |
| 2026-05-06 03:38 | 51.36922 | 12.16930 | 28298 ft | 430 kts | 20° |
| 2026-05-06 03:38 | 51.39730 | 12.18547 | 27177 ft | 427 kts | 20° |
| 2026-05-06 03:39 | 51.42524 | 12.20170 | 26372 ft | 423 kts | 21° |
| 2026-05-06 03:39 | 51.45216 | 12.21759 | 25463 ft | 415 kts | 21° |
| 2026-05-06 03:39 | 51.47906 | 12.23365 | 24489 ft | 410 kts | 21° |
| 2026-05-06 03:39 | 51.50563 | 12.24966 | 23578 ft | 405 kts | 21° |
| 2026-05-06 03:40 | 51.53186 | 12.26558 | 22562 ft | 401 kts | 21° |
| 2026-05-06 03:40 | 51.55784 | 12.28138 | 21562 ft | 397 kts | 20° |
| 2026-05-06 03:40 | 51.58339 | 12.29690 | 20879 ft | 386 kts | 20° |
| 2026-05-06 03:40 | 51.60803 | 12.31182 | 20419 ft | 371 kts | 20° |
| 2026-05-06 03:41 | 51.63209 | 12.32639 | 19950 ft | 369 kts | 20° |
| 2026-05-06 03:41 | 51.65611 | 12.34093 | 19484 ft | 368 kts | 20° |
| 2026-05-06 03:41 | 51.68003 | 12.35537 | 19024 ft | 367 kts | 20° |
| 2026-05-06 03:41 | 51.70357 | 12.36961 | 18576 ft | 366 kts | 20° |
| 2026-05-06 03:42 | 51.72720 | 12.38401 | 18116 ft | 363 kts | 20° |
| 2026-05-06 03:42 | 51.75054 | 12.39832 | 17629 ft | 350 kts | 20° |
| 2026-05-06 03:42 | 51.77290 | 12.41203 | 17211 ft | 341 kts | 20° |
| 2026-05-06 03:42 | 51.79508 | 12.42559 | 16780 ft | 341 kts | 20° |
| 2026-05-06 03:43 | 51.81721 | 12.43909 | 16362 ft | 340 kts | 20° |
| 2026-05-06 03:43 | 51.83936 | 12.45259 | 15942 ft | 340 kts | 20° |
| 2026-05-06 03:43 | 51.86145 | 12.46606 | 15523 ft | 339 kts | 20° |
| 2026-05-06 03:43 | 51.88353 | 12.47958 | 15114 ft | 340 kts | 21° |
| 2026-05-06 03:44 | 51.90565 | 12.49316 | 14693 ft | 340 kts | 21° |
| 2026-05-06 03:44 | 51.92751 | 12.50658 | 14286 ft | 340 kts | 21° |
| 2026-05-06 03:44 | 51.94962 | 12.52017 | 13868 ft | 340 kts | 21° |
| 2026-05-06 03:44 | 51.97176 | 12.53381 | 13430 ft | 341 kts | 21° |
| 2026-05-06 03:45 | 51.99383 | 12.54741 | 12972 ft | 335 kts | 21° |
| 2026-05-06 03:45 | 52.01516 | 12.56055 | 12556 ft | 321 kts | 22° |
| 2026-05-06 03:45 | 52.03565 | 12.57317 | 12166 ft | 309 kts | 22° |
| 2026-05-06 03:45 | 52.05557 | 12.58546 | 11782 ft | 306 kts | 21° |
| 2026-05-06 03:46 | 52.07547 | 12.59780 | 11378 ft | 306 kts | 22° |
| 2026-05-06 03:46 | 52.09542 | 12.61017 | 10989 ft | 307 kts | 22° |
| 2026-05-06 03:46 | 52.11530 | 12.62272 | 10593 ft | 306 kts | 26° |
| 2026-05-06 03:46 | 52.13339 | 12.64056 | 10197 ft | 303 kts | 42° |
| 2026-05-06 03:47 | 52.14772 | 12.66452 | 9851 ft | 288 kts | 57° |
| 2026-05-06 03:47 | 52.15481 | 12.68268 | 9805 ft | 287 kts | 64° |
| 2026-05-06 03:47 | 52.16514 | 12.72248 | 9345 ft | 292 kts | 70° |
| 2026-05-06 03:47 | 52.17254 | 12.75263 | 8862 ft | 283 kts | 70° |
| 2026-05-06 03:48 | 52.17978 | 12.78215 | 8351 ft | 281 kts | 69° |
| 2026-05-06 03:48 | 52.18465 | 12.80201 | 8033 ft | 277 kts | 69° |
| 2026-05-06 03:48 | 52.19164 | 12.83051 | 7583 ft | 274 kts | 70° |
| 2026-05-06 03:48 | 52.19864 | 12.85913 | 7138 ft | 270 kts | 69° |
| 2026-05-06 03:49 | 52.20556 | 12.88752 | 6701 ft | 269 kts | 69° |
| 2026-05-06 03:49 | 52.21242 | 12.91569 | 6262 ft | 266 kts | 69° |
| 2026-05-06 03:49 | 52.21920 | 12.94354 | 5797 ft | 263 kts | 69° |
| 2026-05-06 03:49 | 52.22595 | 12.97131 | 5367 ft | 262 kts | 69° |
| 2026-05-06 03:50 | 52.23261 | 12.99876 | 4960 ft | 258 kts | 69° |
| 2026-05-06 03:50 | 52.23918 | 13.02583 | 4708 ft | 257 kts | 69° |
| 2026-05-06 03:50 | 52.24746 | 13.05991 | 4569 ft | 228 kts | 69° |
| 2026-05-06 03:50 | 52.25127 | 13.07564 | 4533 ft | 214 kts | 69° |
| 2026-05-06 03:51 | 52.25648 | 13.09720 | 4450 ft | 195 kts | 69° |
| 2026-05-06 03:51 | 52.26133 | 13.11725 | 4398 ft | 183 kts | 69° |
| 2026-05-06 03:51 | 52.26579 | 13.13572 | 4309 ft | 168 kts | 69° |
| 2026-05-06 03:51 | 52.26988 | 13.15267 | 4193 ft | 158 kts | 69° |
| 2026-05-06 03:52 | 52.27387 | 13.16925 | 3955 ft | 155 kts | 70° |
| 2026-05-06 03:52 | 52.27774 | 13.18553 | 3748 ft | 152 kts | 70° |
| 2026-05-06 03:52 | 52.28151 | 13.20149 | 3546 ft | 149 kts | 71° |
| 2026-05-06 03:52 | 52.28524 | 13.21708 | 3352 ft | 146 kts | 70° |
| 2026-05-06 03:53 | 52.28889 | 13.23231 | 3220 ft | 143 kts | 70° |
| 2026-05-06 03:53 | 52.29251 | 13.24741 | 3057 ft | 142 kts | 70° |
| 2026-05-06 03:53 | 52.29613 | 13.26246 | 2867 ft | 142 kts | 70° |
| 2026-05-06 03:53 | 52.29973 | 13.27742 | 2685 ft | 141 kts | 70° |
| 2026-05-06 03:54 | 52.30330 | 13.29232 | 2494 ft | 141 kts | 71° |
| 2026-05-06 03:54 | 52.30687 | 13.30716 | 2311 ft | 140 kts | 70° |
| 2026-05-06 03:54 | 52.31040 | 13.32189 | 2132 ft | 139 kts | 70° |
| 2026-05-06 03:54 | 52.31389 | 13.33648 | 1936 ft | 138 kts | 70° |
| 2026-05-06 03:55 | 52.31736 | 13.35092 | 1749 ft | 139 kts | 69° |
| 2026-05-06 03:55 | 52.32086 | 13.36557 | 1565 ft | 138 kts | 68° |
| 2026-05-06 03:55 | 52.32437 | 13.38024 | 1369 ft | 138 kts | 68° |
| 2026-05-06 03:55 | 52.32785 | 13.39481 | 1177 ft | 138 kts | 69° |
| 2026-05-06 03:56 | 52.33134 | 13.40940 | 971 ft | 139 kts | 69° |
| 2026-05-06 03:56 | 52.33486 | 13.42415 | 780 ft | 137 kts | 67° |
| 2026-05-06 03:56 | 52.33834 | 13.43871 | 588 ft | 138 kts | 68° |
| 2026-05-06 03:56 | 52.34179 | 13.45326 | 427 ft | 136 kts | 68° |
| 2026-05-06 03:57 | 52.34523 | 13.46811 | 209 ft | 138 kts | 65° |
| 2026-05-06 03:57 | 52.34860 | 13.48178 | 154 ft | 112 kts | 69° |
| 2026-05-06 03:57 | 52.35079 | 13.49101 | 154 ft | 62 kts | 69° |
| 2026-05-06 03:57 | 52.35179 | 13.49517 | 154 ft | 19 kts | 69° |
| 2026-05-06 03:58 | 52.35191 | 13.49570 | 154 ft | 5 kts | 69° |
| 2026-05-06 03:58 | 52.35228 | 13.49715 | 154 ft | 22 kts | 64° |
| 2026-05-06 03:58 | 52.35332 | 13.49934 | 154 ft | 25 kts | 43° |
| 2026-05-06 03:58 | 52.35450 | 13.50094 | 154 ft | 11 kts | 39° |
| 2026-05-06 03:59 | 52.35464 | 13.50112 | 154 ft | 2 kts | 39° |
| 2026-05-06 03:59 | 52.35486 | 13.50142 | 154 ft | 6 kts | 38° |
| 2026-05-06 03:59 | 52.35528 | 13.50193 | 154 ft | 9 kts | 37° |
| 2026-05-06 03:59 | 52.35583 | 13.50268 | 154 ft | 12 kts | 42° |
| 2026-05-06 04:00 | 52.35622 | 13.50396 | 154 ft | 14 kts | 69° |
| 2026-05-06 04:00 | 52.35661 | 13.50558 | 154 ft | 17 kts | 70° |
| 2026-05-06 04:00 | 52.35706 | 13.50745 | 154 ft | 18 kts | 68° |
| 2026-05-06 04:00 | 52.35754 | 13.50833 | 155 ft | 10 kts | 349° |
| 2026-05-06 04:01 | 52.35823 | 13.50793 | 155 ft | 11 kts | 339° |
| 2026-05-06 04:01 | 52.35904 | 13.50741 | 155 ft | 14 kts | 338° |
| 2026-05-06 04:01 | 52.36001 | 13.50680 | 155 ft | 16 kts | 339° |
| 2026-05-06 04:01 | 52.36111 | 13.50612 | 155 ft | 17 kts | 339° |
| 2026-05-06 04:02 | 52.36221 | 13.50541 | 155 ft | 18 kts | 339° |
| 2026-05-06 04:02 | 52.36332 | 13.50471 | 155 ft | 13 kts | 339° |
| 2026-05-06 04:02 | 52.36409 | 13.50423 | 155 ft | 13 kts | 339° |
| 2026-05-06 04:02 | 52.36471 | 13.50385 | 155 ft | 5 kts | 344° |
| 2026-05-06 04:03 | 52.36477 | 13.50401 | 155 ft | 3 kts | 69° |
| 2026-05-06 04:03 | 52.36494 | 13.50473 | 155 ft | 7 kts | 69° |
| 2026-05-06 04:03 | 52.36501 | 13.50506 | 155 ft | 0 kts | 69° |
| 2026-05-06 04:03 | 52.36504 | 13.50514 | 155 ft | 1 kts | 69° |
| 2026-05-06 04:04 | 52.36505 | 13.50519 | 155 ft | 0 kts | 69° |